sensor_id;sensor_type;location;lat;lon;timestamp;pressure;altitude;pressure_sealevel;temperature;humidity
57024;BME280;42916;54.346;18.562;2022-12-18T00:02:12;101803.83;;;-5.76;100.00
57024;BME280;42916;54.346;18.562;2022-12-18T00:04:39;101807.80;;;-5.77;100.00
57024;BME280;42916;54.346;18.562;2022-12-18T00:07:05;101813.62;;;-5.79;100.00
57024;BME280;42916;54.346;18.562;2022-12-18T00:09:32;101814.06;;;-5.83;100.00
57024;BME280;42916;54.346;18.562;2022-12-18T00:11:59;101817.94;;;-5.87;100.00
57024;BME280;42916;54.346;18.562;2022-12-18T00:14:25;101819.50;;;-5.94;100.00
57024;BME280;42916;54.346;18.562;2022-12-18T00:16:52;101824.02;;;-6.00;100.00
57024;BME280;42916;54.346;18.562;2022-12-18T00:19:19;101827.52;;;-6.04;100.00
57024;BME280;42916;54.346;18.562;2022-12-18T00:21:45;101826.36;;;-6.08;100.00
57024;BME280;42916;54.346;18.562;2022-12-18T00:24:12;101825.66;;;-6.13;100.00
57024;BME280;42916;54.346;18.562;2022-12-18T00:26:39;101822.63;;;-6.17;100.00
57024;BME280;42916;54.346;18.562;2022-12-18T00:29:13;101823.63;;;-6.24;100.00
57024;BME280;42916;54.346;18.562;2022-12-18T00:31:41;101832.84;;;-6.31;100.00
57024;BME280;42916;54.346;18.562;2022-12-18T00:34:11;101831.44;;;-6.39;100.00
57024;BME280;42916;54.346;18.562;2022-12-18T00:36:40;101834.23;;;-6.46;100.00
57024;BME280;42916;54.346;18.562;2022-12-18T00:39:08;101833.81;;;-6.53;100.00
57024;BME280;42916;54.346;18.562;2022-12-18T00:41:36;101842.76;;;-6.57;100.00
57024;BME280;42916;54.346;18.562;2022-12-18T00:44:21;101839.91;;;-6.62;100.00
57024;BME280;42916;54.346;18.562;2022-12-18T00:46:48;101838.12;;;-6.64;100.00
57024;BME280;42916;54.346;18.562;2022-12-18T00:49:17;101839.08;;;-6.65;100.00
57024;BME280;42916;54.346;18.562;2022-12-18T00:51:44;101841.40;;;-6.63;100.00
57024;BME280;42916;54.346;18.562;2022-12-18T00:54:11;101844.73;;;-6.63;100.00
57024;BME280;42916;54.346;18.562;2022-12-18T00:56:38;101846.16;;;-6.63;100.00
57024;BME280;42916;54.346;18.562;2022-12-18T00:59:05;101845.42;;;-6.63;100.00
57024;BME280;42916;54.346;18.562;2022-12-18T01:01:32;101850.55;;;-6.60;100.00
57024;BME280;42916;54.346;18.562;2022-12-18T01:04:01;101847.60;;;-6.58;100.00
57024;BME280;42916;54.346;18.562;2022-12-18T01:06:28;101847.13;;;-6.56;100.00
57024;BME280;42916;54.346;18.562;2022-12-18T01:08:55;101843.94;;;-6.54;100.00
57024;BME280;42916;54.346;18.562;2022-12-18T01:11:23;101847.83;;;-6.51;100.00
57024;BME280;42916;54.346;18.562;2022-12-18T01:13:52;101852.97;;;-6.49;100.00
57024;BME280;42916;54.346;18.562;2022-12-18T01:16:18;101857.42;;;-6.47;100.00
57024;BME280;42916;54.346;18.562;2022-12-18T01:18:45;101859.16;;;-6.47;100.00
57024;BME280;42916;54.346;18.562;2022-12-18T01:21:15;101860.00;;;-6.47;100.00
57024;BME280;42916;54.346;18.562;2022-12-18T01:23:46;101855.43;;;-6.47;100.00
57024;BME280;42916;54.346;18.562;2022-12-18T01:26:14;101860.80;;;-6.47;100.00
57024;BME280;42916;54.346;18.562;2022-12-18T01:28:42;101862.80;;;-6.49;100.00
57024;BME280;42916;54.346;18.562;2022-12-18T01:31:20;101867.80;;;-6.47;100.00
57024;BME280;42916;54.346;18.562;2022-12-18T01:33:48;101866.01;;;-6.44;100.00
57024;BME280;42916;54.346;18.562;2022-12-18T01:36:16;101865.61;;;-6.40;100.00
57024;BME280;42916;54.346;18.562;2022-12-18T01:38:44;101865.29;;;-6.38;100.00
57024;BME280;42916;54.346;18.562;2022-12-18T01:41:11;101869.44;;;-6.37;100.00
57024;BME280;42916;54.346;18.562;2022-12-18T01:43:56;101867.91;;;-6.38;100.00
57024;BME280;42916;54.346;18.562;2022-12-18T01:46:27;101873.42;;;-6.39;100.00
57024;BME280;42916;54.346;18.562;2022-12-18T01:49:00;101868.20;;;-6.40;100.00
57024;BME280;42916;54.346;18.562;2022-12-18T01:51:29;101864.74;;;-6.40;100.00
57024;BME280;42916;54.346;18.562;2022-12-18T01:53:58;101865.91;;;-6.40;100.00
57024;BME280;42916;54.346;18.562;2022-12-18T01:56:26;101868.44;;;-6.36;100.00
57024;BME280;42916;54.346;18.562;2022-12-18T01:58:58;101866.62;;;-6.30;100.00
57024;BME280;42916;54.346;18.562;2022-12-18T02:01:29;101868.44;;;-6.23;100.00
57024;BME280;42916;54.346;18.562;2022-12-18T02:04:19;101873.39;;;-6.21;100.00
57024;BME280;42916;54.346;18.562;2022-12-18T02:06:52;101876.62;;;-6.17;100.00
57024;BME280;42916;54.346;18.562;2022-12-18T02:09:31;101880.19;;;-6.12;100.00
57024;BME280;42916;54.346;18.562;2022-12-18T02:12:20;101876.70;;;-6.08;100.00
57024;BME280;42916;54.346;18.562;2022-12-18T02:15:00;101877.23;;;-6.03;100.00
57024;BME280;42916;54.346;18.562;2022-12-18T02:17:39;101881.55;;;-5.99;100.00
57024;BME280;42916;54.346;18.562;2022-12-18T02:28:04;101887.33;;;-5.65;100.00
57024;BME280;42916;54.346;18.562;2022-12-18T02:30:35;101883.81;;;-5.53;100.00
57024;BME280;42916;54.346;18.562;2022-12-18T02:33:06;101888.98;;;-5.42;100.00
57024;BME280;42916;54.346;18.562;2022-12-18T02:35:35;101890.44;;;-5.33;100.00
57024;BME280;42916;54.346;18.562;2022-12-18T02:38:03;101889.80;;;-5.26;100.00
57024;BME280;42916;54.346;18.562;2022-12-18T02:40:31;101895.12;;;-5.19;100.00
57024;BME280;42916;54.346;18.562;2022-12-18T02:43:13;101895.41;;;-5.12;100.00
57024;BME280;42916;54.346;18.562;2022-12-18T02:45:58;101903.84;;;-5.06;100.00
57024;BME280;42916;54.346;18.562;2022-12-18T02:48:31;101913.05;;;-4.99;100.00
57024;BME280;42916;54.346;18.562;2022-12-18T02:51:14;101908.71;;;-4.96;100.00
57024;BME280;42916;54.346;18.562;2022-12-18T02:53:53;101904.70;;;-4.92;100.00
57024;BME280;42916;54.346;18.562;2022-12-18T02:56:28;101906.98;;;-4.91;100.00
57024;BME280;42916;54.346;18.562;2022-12-18T02:59:17;101908.73;;;-4.91;100.00
57024;BME280;42916;54.346;18.562;2022-12-18T03:01:56;101911.94;;;-4.92;100.00
57024;BME280;42916;54.346;18.562;2022-12-18T03:04:42;101911.95;;;-4.92;100.00
57024;BME280;42916;54.346;18.562;2022-12-18T03:07:23;101914.94;;;-4.91;100.00
57024;BME280;42916;54.346;18.562;2022-12-18T03:09:54;101912.44;;;-4.91;100.00
57024;BME280;42916;54.346;18.562;2022-12-18T03:12:29;101921.30;;;-4.91;100.00
57024;BME280;42916;54.346;18.562;2022-12-18T03:15:04;101921.71;;;-4.92;100.00
57024;BME280;42916;54.346;18.562;2022-12-18T03:17:34;101922.70;;;-4.94;100.00
57024;BME280;42916;54.346;18.562;2022-12-18T03:20:15;101924.20;;;-4.95;100.00
57024;BME280;42916;54.346;18.562;2022-12-18T03:22:46;101926.10;;;-4.94;100.00
57024;BME280;42916;54.346;18.562;2022-12-18T03:25:14;101927.98;;;-4.93;100.00
57024;BME280;42916;54.346;18.562;2022-12-18T03:27:47;101928.35;;;-4.94;100.00
57024;BME280;42916;54.346;18.562;2022-12-18T03:30:16;101927.33;;;-4.94;100.00
57024;BME280;42916;54.346;18.562;2022-12-18T03:32:52;101934.15;;;-4.95;100.00
57024;BME280;42916;54.346;18.562;2022-12-18T03:35:24;101937.05;;;-4.96;100.00
57024;BME280;42916;54.346;18.562;2022-12-18T03:37:52;101941.38;;;-4.95;100.00
57024;BME280;42916;54.346;18.562;2022-12-18T03:40:24;101939.83;;;-4.93;100.00
57024;BME280;42916;54.346;18.562;2022-12-18T03:43:00;101942.73;;;-4.92;100.00
57024;BME280;42916;54.346;18.562;2022-12-18T03:45:34;101950.14;;;-4.91;100.00
57024;BME280;42916;54.346;18.562;2022-12-18T03:48:19;101953.39;;;-4.93;100.00
57024;BME280;42916;54.346;18.562;2022-12-18T03:51:06;101954.19;;;-4.96;100.00
57024;BME280;42916;54.346;18.562;2022-12-18T03:53:49;101954.91;;;-4.98;100.00
57024;BME280;42916;54.346;18.562;2022-12-18T03:56:21;101956.52;;;-5.01;100.00
57024;BME280;42916;54.346;18.562;2022-12-18T03:58:50;101956.27;;;-5.02;100.00
57024;BME280;42916;54.346;18.562;2022-12-18T04:01:34;101958.66;;;-5.03;100.00
57024;BME280;42916;54.346;18.562;2022-12-18T04:04:04;101966.95;;;-5.03;100.00
57024;BME280;42916;54.346;18.562;2022-12-18T04:06:34;101965.01;;;-5.03;100.00
57024;BME280;42916;54.346;18.562;2022-12-18T04:09:02;101967.60;;;-5.05;100.00
57024;BME280;42916;54.346;18.562;2022-12-18T04:11:32;101974.30;;;-5.07;100.00
57024;BME280;42916;54.346;18.562;2022-12-18T04:13:59;101977.81;;;-5.09;100.00
57024;BME280;42916;54.346;18.562;2022-12-18T04:16:26;101975.27;;;-5.08;100.00
57024;BME280;42916;54.346;18.562;2022-12-18T04:18:55;101981.02;;;-5.07;100.00
57024;BME280;42916;54.346;18.562;2022-12-18T04:21:22;101979.59;;;-5.06;100.00
57024;BME280;42916;54.346;18.562;2022-12-18T04:23:49;101975.79;;;-5.08;100.00
57024;BME280;42916;54.346;18.562;2022-12-18T04:26:17;101976.42;;;-5.09;100.00
57024;BME280;42916;54.346;18.562;2022-12-18T04:29:01;101978.44;;;-5.10;100.00
57024;BME280;42916;54.346;18.562;2022-12-18T04:31:28;101984.39;;;-5.12;100.00
57024;BME280;42916;54.346;18.562;2022-12-18T04:33:55;101983.81;;;-5.11;100.00
57024;BME280;42916;54.346;18.562;2022-12-18T04:36:22;101982.20;;;-5.11;100.00
57024;BME280;42916;54.346;18.562;2022-12-18T04:38:49;101982.91;;;-5.11;100.00
57024;BME280;42916;54.346;18.562;2022-12-18T04:41:16;101983.58;;;-5.13;100.00
57024;BME280;42916;54.346;18.562;2022-12-18T04:43:44;101991.20;;;-5.15;100.00
57024;BME280;42916;54.346;18.562;2022-12-18T04:46:11;101992.76;;;-5.17;100.00
57024;BME280;42916;54.346;18.562;2022-12-18T04:48:38;101997.18;;;-5.20;100.00
57024;BME280;42916;54.346;18.562;2022-12-18T04:51:05;102001.40;;;-5.21;100.00
57024;BME280;42916;54.346;18.562;2022-12-18T04:53:32;102001.05;;;-5.22;100.00
57024;BME280;42916;54.346;18.562;2022-12-18T04:56:08;102001.59;;;-5.22;100.00
57024;BME280;42916;54.346;18.562;2022-12-18T04:58:37;102002.40;;;-5.23;100.00
57024;BME280;42916;54.346;18.562;2022-12-18T05:01:04;102006.10;;;-5.25;100.00
57024;BME280;42916;54.346;18.562;2022-12-18T05:03:31;102002.06;;;-5.28;100.00
57024;BME280;42916;54.346;18.562;2022-12-18T05:05:58;102006.61;;;-5.30;100.00
57024;BME280;42916;54.346;18.562;2022-12-18T05:08:25;102002.63;;;-5.29;100.00
57024;BME280;42916;54.346;18.562;2022-12-18T05:11:21;102005.95;;;-5.28;100.00
57024;BME280;42916;54.346;18.562;2022-12-18T05:13:49;102011.65;;;-5.29;100.00
57024;BME280;42916;54.346;18.562;2022-12-18T05:16:15;102017.45;;;-5.31;100.00
57024;BME280;42916;54.346;18.562;2022-12-18T05:18:42;102018.11;;;-5.33;100.00
57024;BME280;42916;54.346;18.562;2022-12-18T05:21:09;102020.12;;;-5.34;100.00
57024;BME280;42916;54.346;18.562;2022-12-18T05:23:35;102019.71;;;-5.35;100.00
57024;BME280;42916;54.346;18.562;2022-12-18T05:26:04;102029.07;;;-5.35;100.00
57024;BME280;42916;54.346;18.562;2022-12-18T05:28:33;102039.26;;;-5.34;100.00
57024;BME280;42916;54.346;18.562;2022-12-18T05:31:04;102041.11;;;-5.33;100.00
57024;BME280;42916;54.346;18.562;2022-12-18T05:33:33;102038.94;;;-5.32;100.00
57024;BME280;42916;54.346;18.562;2022-12-18T05:36:04;102037.92;;;-5.33;100.00
57024;BME280;42916;54.346;18.562;2022-12-18T05:38:33;102042.33;;;-5.33;100.00
57024;BME280;42916;54.346;18.562;2022-12-18T05:41:01;102040.83;;;-5.34;100.00
57024;BME280;42916;54.346;18.562;2022-12-18T05:43:28;102045.23;;;-5.36;100.00
57024;BME280;42916;54.346;18.562;2022-12-18T05:45:55;102049.21;;;-5.35;100.00
57024;BME280;42916;54.346;18.562;2022-12-18T05:48:23;102058.86;;;-5.34;100.00
57024;BME280;42916;54.346;18.562;2022-12-18T05:50:50;102063.96;;;-5.33;100.00
57024;BME280;42916;54.346;18.562;2022-12-18T05:53:18;102063.83;;;-5.32;100.00
57024;BME280;42916;54.346;18.562;2022-12-18T05:55:46;102066.50;;;-5.32;100.00
57024;BME280;42916;54.346;18.562;2022-12-18T05:58:14;102057.95;;;-5.34;100.00
57024;BME280;42916;54.346;18.562;2022-12-18T06:00:43;102059.23;;;-5.34;100.00
57024;BME280;42916;54.346;18.562;2022-12-18T06:03:11;102061.74;;;-5.37;100.00
57024;BME280;42916;54.346;18.562;2022-12-18T06:05:44;102066.76;;;-5.38;100.00
57024;BME280;42916;54.346;18.562;2022-12-18T06:08:12;102066.85;;;-5.39;100.00
57024;BME280;42916;54.346;18.562;2022-12-18T06:10:40;102071.98;;;-5.39;100.00
57024;BME280;42916;54.346;18.562;2022-12-18T06:13:07;102077.30;;;-5.39;100.00
57024;BME280;42916;54.346;18.562;2022-12-18T06:15:36;102079.38;;;-5.41;100.00
57024;BME280;42916;54.346;18.562;2022-12-18T06:18:03;102075.48;;;-5.44;100.00
57024;BME280;42916;54.346;18.562;2022-12-18T06:20:30;102078.41;;;-5.47;100.00
57024;BME280;42916;54.346;18.562;2022-12-18T06:22:57;102080.24;;;-5.51;100.00
57024;BME280;42916;54.346;18.562;2022-12-18T06:25:24;102084.29;;;-5.53;100.00
57024;BME280;42916;54.346;18.562;2022-12-18T06:27:50;102079.36;;;-5.53;100.00
57024;BME280;42916;54.346;18.562;2022-12-18T06:30:17;102080.37;;;-5.53;100.00
57024;BME280;42916;54.346;18.562;2022-12-18T06:32:44;102087.56;;;-5.52;100.00
57024;BME280;42916;54.346;18.562;2022-12-18T06:35:11;102093.45;;;-5.53;100.00
57024;BME280;42916;54.346;18.562;2022-12-18T06:37:37;102100.66;;;-5.55;100.00
57024;BME280;42916;54.346;18.562;2022-12-18T06:40:05;102106.30;;;-5.57;100.00
57024;BME280;42916;54.346;18.562;2022-12-18T06:42:32;102108.41;;;-5.59;100.00
57024;BME280;42916;54.346;18.562;2022-12-18T06:44:58;102118.38;;;-5.63;100.00
57024;BME280;42916;54.346;18.562;2022-12-18T06:47:25;102125.48;;;-5.66;100.00
57024;BME280;42916;54.346;18.562;2022-12-18T06:49:52;102126.55;;;-5.66;100.00
57024;BME280;42916;54.346;18.562;2022-12-18T06:52:18;102126.77;;;-5.67;100.00
57024;BME280;42916;54.346;18.562;2022-12-18T06:54:45;102127.15;;;-5.67;100.00
57024;BME280;42916;54.346;18.562;2022-12-18T06:57:12;102128.55;;;-5.67;100.00
57024;BME280;42916;54.346;18.562;2022-12-18T06:59:38;102131.45;;;-5.68;100.00
57024;BME280;42916;54.346;18.562;2022-12-18T07:02:05;102139.94;;;-5.68;100.00
57024;BME280;42916;54.346;18.562;2022-12-18T07:04:32;102137.63;;;-5.68;100.00
57024;BME280;42916;54.346;18.562;2022-12-18T07:06:58;102138.59;;;-5.67;100.00
57024;BME280;42916;54.346;18.562;2022-12-18T07:09:25;102145.34;;;-5.64;100.00
57024;BME280;42916;54.346;18.562;2022-12-18T07:11:52;102150.01;;;-5.62;100.00
57024;BME280;42916;54.346;18.562;2022-12-18T07:14:19;102149.55;;;-5.61;100.00
57024;BME280;42916;54.346;18.562;2022-12-18T07:16:45;102158.66;;;-5.60;100.00
57024;BME280;42916;54.346;18.562;2022-12-18T07:19:12;102161.78;;;-5.59;100.00
57024;BME280;42916;54.346;18.562;2022-12-18T07:21:38;102166.73;;;-5.59;100.00
57024;BME280;42916;54.346;18.562;2022-12-18T07:24:06;102166.87;;;-5.59;100.00
57024;BME280;42916;54.346;18.562;2022-12-18T07:26:32;102163.16;;;-5.56;100.00
57024;BME280;42916;54.346;18.562;2022-12-18T07:28:59;102162.41;;;-5.53;100.00
57024;BME280;42916;54.346;18.562;2022-12-18T07:31:26;102163.01;;;-5.51;100.00
57024;BME280;42916;54.346;18.562;2022-12-18T07:33:53;102172.23;;;-5.50;100.00
57024;BME280;42916;54.346;18.562;2022-12-18T07:36:20;102163.90;;;-5.49;100.00
57024;BME280;42916;54.346;18.562;2022-12-18T07:38:48;102172.91;;;-5.49;100.00
57024;BME280;42916;54.346;18.562;2022-12-18T07:41:15;102174.42;;;-5.47;100.00
57024;BME280;42916;54.346;18.562;2022-12-18T07:43:44;102180.00;;;-5.44;100.00
57024;BME280;42916;54.346;18.562;2022-12-18T07:46:13;102179.05;;;-5.38;100.00
57024;BME280;42916;54.346;18.562;2022-12-18T07:48:41;102190.27;;;-5.32;100.00
57024;BME280;42916;54.346;18.562;2022-12-18T07:51:11;102201.21;;;-5.26;100.00
57024;BME280;42916;54.346;18.562;2022-12-18T07:53:39;102204.33;;;-5.20;100.00
57024;BME280;42916;54.346;18.562;2022-12-18T07:56:10;102195.13;;;-5.15;100.00
57024;BME280;42916;54.346;18.562;2022-12-18T07:58:38;102187.96;;;-5.08;100.00
57024;BME280;42916;54.346;18.562;2022-12-18T08:01:10;102184.54;;;-5.03;100.00
57024;BME280;42916;54.346;18.562;2022-12-18T08:03:40;102183.71;;;-4.94;100.00
57024;BME280;42916;54.346;18.562;2022-12-18T08:06:07;102187.12;;;-4.86;100.00
57024;BME280;42916;54.346;18.562;2022-12-18T08:08:35;102193.98;;;-4.81;100.00
57024;BME280;42916;54.346;18.562;2022-12-18T08:11:02;102194.55;;;-4.77;100.00
57024;BME280;42916;54.346;18.562;2022-12-18T08:13:29;102195.30;;;-4.73;100.00
57024;BME280;42916;54.346;18.562;2022-12-18T08:16:00;102203.89;;;-4.69;100.00
57024;BME280;42916;54.346;18.562;2022-12-18T08:18:28;102206.03;;;-4.62;100.00
57024;BME280;42916;54.346;18.562;2022-12-18T08:20:55;102207.58;;;-4.54;100.00
57024;BME280;42916;54.346;18.562;2022-12-18T08:23:23;102205.61;;;-4.46;100.00
57024;BME280;42916;54.346;18.562;2022-12-18T08:25:53;102205.88;;;-4.40;100.00
57024;BME280;42916;54.346;18.562;2022-12-18T08:28:19;102207.32;;;-4.36;100.00
57024;BME280;42916;54.346;18.562;2022-12-18T08:30:51;102204.95;;;-4.32;100.00
57024;BME280;42916;54.346;18.562;2022-12-18T08:33:18;102206.45;;;-4.26;100.00
57024;BME280;42916;54.346;18.562;2022-12-18T08:35:46;102208.42;;;-4.19;100.00
57024;BME280;42916;54.346;18.562;2022-12-18T08:38:16;102207.77;;;-4.13;100.00
57024;BME280;42916;54.346;18.562;2022-12-18T08:40:43;102205.81;;;-4.08;100.00
57024;BME280;42916;54.346;18.562;2022-12-18T08:43:10;102204.21;;;-4.03;100.00
57024;BME280;42916;54.346;18.562;2022-12-18T08:45:55;102201.81;;;-3.97;100.00
57024;BME280;42916;54.346;18.562;2022-12-18T08:48:23;102201.13;;;-3.93;100.00
57024;BME280;42916;54.346;18.562;2022-12-18T08:50:58;102204.67;;;-3.86;100.00
57024;BME280;42916;54.346;18.562;2022-12-18T08:53:28;102205.28;;;-3.77;100.00
57024;BME280;42916;54.346;18.562;2022-12-18T08:55:58;102207.56;;;-3.70;99.96
57024;BME280;42916;54.346;18.562;2022-12-18T08:58:27;102213.70;;;-3.65;100.00
57024;BME280;42916;54.346;18.562;2022-12-18T09:00:54;102211.56;;;-3.60;99.76
57024;BME280;42916;54.346;18.562;2022-12-18T09:03:20;102208.39;;;-3.56;99.85
57024;BME280;42916;54.346;18.562;2022-12-18T09:05:48;102209.16;;;-3.51;99.83
57024;BME280;42916;54.346;18.562;2022-12-18T09:08:15;102212.20;;;-3.50;99.58
57024;BME280;42916;54.346;18.562;2022-12-18T09:10:46;102219.98;;;-3.45;99.52
57024;BME280;42916;54.346;18.562;2022-12-18T09:13:14;102221.83;;;-3.39;98.54
57024;BME280;42916;54.346;18.562;2022-12-18T09:15:42;102224.04;;;-3.33;98.66
57024;BME280;42916;54.346;18.562;2022-12-18T09:18:09;102223.36;;;-3.29;98.59
57024;BME280;42916;54.346;18.562;2022-12-18T09:20:36;102224.67;;;-3.25;98.33
57024;BME280;42916;54.346;18.562;2022-12-18T09:23:04;102221.65;;;-3.23;97.18
57024;BME280;42916;54.346;18.562;2022-12-18T09:25:32;102215.05;;;-3.20;97.54
57024;BME280;42916;54.346;18.562;2022-12-18T09:28:00;102218.45;;;-3.18;97.14
57024;BME280;42916;54.346;18.562;2022-12-18T09:30:26;102229.05;;;-3.15;96.87
57024;BME280;42916;54.346;18.562;2022-12-18T09:32:53;102232.91;;;-3.12;95.99
57024;BME280;42916;54.346;18.562;2022-12-18T09:35:20;102238.26;;;-3.08;95.27
57024;BME280;42916;54.346;18.562;2022-12-18T09:37:47;102231.36;;;-3.04;95.59
57024;BME280;42916;54.346;18.562;2022-12-18T09:40:16;102226.01;;;-3.01;95.84
57024;BME280;42916;54.346;18.562;2022-12-18T09:43:05;102229.87;;;-2.98;96.10
57024;BME280;42916;54.346;18.562;2022-12-18T09:45:40;102237.39;;;-2.97;94.29
57024;BME280;42916;54.346;18.562;2022-12-18T09:48:16;102240.55;;;-2.97;94.77
57024;BME280;42916;54.346;18.562;2022-12-18T09:50:46;102230.32;;;-2.95;94.78
57024;BME280;42916;54.346;18.562;2022-12-18T09:53:21;102235.55;;;-2.94;94.80
57024;BME280;42916;54.346;18.562;2022-12-18T09:55:51;102234.70;;;-2.94;93.31
57024;BME280;42916;54.346;18.562;2022-12-18T10:01:14;102244.77;;;-2.89;92.43
57024;BME280;42916;54.346;18.562;2022-12-18T10:03:44;102229.48;;;-2.87;92.94
57024;BME280;42916;54.346;18.562;2022-12-18T10:06:16;102228.06;;;-2.85;91.75
57024;BME280;42916;54.346;18.562;2022-12-18T10:08:56;102229.34;;;-2.83;92.19
57024;BME280;42916;54.346;18.562;2022-12-18T10:19:39;102235.20;;;-2.76;91.71
57024;BME280;42916;54.346;18.562;2022-12-18T10:22:33;102239.13;;;-2.72;90.62
57024;BME280;42916;54.346;18.562;2022-12-18T10:25:17;102234.74;;;-2.66;91.00
57024;BME280;42916;54.346;18.562;2022-12-18T10:27:46;102245.96;;;-2.61;91.08
57024;BME280;42916;54.346;18.562;2022-12-18T10:30:15;102254.90;;;-2.58;89.99
57024;BME280;42916;54.346;18.562;2022-12-18T10:32:43;102256.16;;;-2.54;90.10
57024;BME280;42916;54.346;18.562;2022-12-18T10:35:25;102249.68;;;-2.53;88.25
57024;BME280;42916;54.346;18.562;2022-12-18T10:43:27;102246.77;;;-2.41;89.46
57024;BME280;42916;54.346;18.562;2022-12-18T10:48:41;102248.91;;;-2.28;89.62
57024;BME280;42916;54.346;18.562;2022-12-18T10:51:24;102252.96;;;-2.19;89.28
57024;BME280;42916;54.346;18.562;2022-12-18T10:54:04;102258.06;;;-2.12;87.23
57024;BME280;42916;54.346;18.562;2022-12-18T10:56:34;102249.42;;;-2.08;86.83
57024;BME280;42916;54.346;18.562;2022-12-18T10:59:07;102245.45;;;-2.03;87.66
57024;BME280;42916;54.346;18.562;2022-12-18T11:01:55;102242.96;;;-1.99;87.75
57024;BME280;42916;54.346;18.562;2022-12-18T11:04:27;102242.94;;;-1.94;87.84
57024;BME280;42916;54.346;18.562;2022-12-18T11:09:32;102250.51;;;-1.89;85.33
57024;BME280;42916;54.346;18.562;2022-12-18T11:12:03;102249.94;;;-1.86;86.06
57024;BME280;42916;54.346;18.562;2022-12-18T11:14:41;102250.94;;;-1.83;86.00
57024;BME280;42916;54.346;18.562;2022-12-18T11:17:28;102254.33;;;-1.79;86.39
57024;BME280;42916;54.346;18.562;2022-12-18T11:20:46;102256.21;;;-1.78;83.24
57024;BME280;42916;54.346;18.562;2022-12-18T11:23:04;102260.62;;;-1.74;83.66
57024;BME280;42916;54.346;18.562;2022-12-18T11:25:32;102257.98;;;-1.67;83.38
57024;BME280;42916;54.346;18.562;2022-12-18T11:28:05;102260.41;;;-1.62;83.08
57024;BME280;42916;54.346;18.562;2022-12-18T11:31:11;102262.54;;;-1.58;83.46
57024;BME280;42916;54.346;18.562;2022-12-18T11:33:42;102258.36;;;-1.49;83.37
57024;BME280;42916;54.346;18.562;2022-12-18T11:36:10;102248.93;;;-1.42;82.89
57024;BME280;42916;54.346;18.562;2022-12-18T11:38:42;102254.86;;;-1.37;81.54
57024;BME280;42916;54.346;18.562;2022-12-18T11:41:31;102263.00;;;-1.32;81.10
57024;BME280;42916;54.346;18.562;2022-12-18T11:44:26;102273.45;;;-1.21;82.36
57024;BME280;42916;54.346;18.562;2022-12-18T11:47:03;102277.67;;;-1.10;82.05
57024;BME280;42916;54.346;18.562;2022-12-18T11:49:35;102284.86;;;-1.04;80.71
57024;BME280;42916;54.346;18.562;2022-12-18T11:54:29;102289.93;;;-0.91;81.67
57024;BME280;42916;54.346;18.562;2022-12-18T12:02:42;102298.56;;;-0.57;80.89
57024;BME280;42916;54.346;18.562;2022-12-18T12:08:05;102300.83;;;-0.46;79.78
57024;BME280;42916;54.346;18.562;2022-12-18T12:22:13;102299.51;;;0.05;78.79
57024;BME280;42916;54.346;18.562;2022-12-18T12:24:47;102298.48;;;0.06;78.03
57024;BME280;42916;54.346;18.562;2022-12-18T12:30:00;102297.29;;;0.13;77.95
57024;BME280;42916;54.346;18.562;2022-12-18T12:32:49;102289.87;;;0.16;77.78
57024;BME280;42916;54.346;18.562;2022-12-18T12:40:51;102280.48;;;0.35;76.56
57024;BME280;42916;54.346;18.562;2022-12-18T12:43:25;102276.91;;;0.37;76.24
57024;BME280;42916;54.346;18.562;2022-12-18T12:48:50;102280.77;;;0.42;74.44
57024;BME280;42916;54.346;18.562;2022-12-18T12:53:46;102283.30;;;0.41;72.98
57024;BME280;42916;54.346;18.562;2022-12-18T12:56:15;102277.65;;;0.35;71.41
57024;BME280;42916;54.346;18.562;2022-12-18T13:07:03;102276.73;;;-0.26;73.36
57024;BME280;42916;54.346;18.562;2022-12-18T13:09:32;102281.80;;;-0.47;73.31
57024;BME280;42916;54.346;18.562;2022-12-18T13:12:05;102285.20;;;-0.65;73.61
57024;BME280;42916;54.346;18.562;2022-12-18T13:15:21;102277.57;;;-0.88;73.58
57024;BME280;42916;54.346;18.562;2022-12-18T13:17:48;102282.39;;;-1.07;73.73
57024;BME280;42916;54.346;18.562;2022-12-18T13:20:15;102284.59;;;-1.22;74.00
57024;BME280;42916;54.346;18.562;2022-12-18T13:22:45;102281.88;;;-1.37;74.24
57024;BME280;42916;54.346;18.562;2022-12-18T13:25:34;102279.55;;;-1.49;74.31
57024;BME280;42916;54.346;18.562;2022-12-18T13:30:54;102281.91;;;-1.73;75.26
57024;BME280;42916;54.346;18.562;2022-12-18T13:38:40;102281.33;;;-2.02;75.92
57024;BME280;42916;54.346;18.562;2022-12-18T13:43:43;102287.07;;;-2.20;76.12
57024;BME280;42916;54.346;18.562;2022-12-18T13:46:25;102285.45;;;-2.29;76.42
57024;BME280;42916;54.346;18.562;2022-12-18T13:49:01;102287.00;;;-2.35;76.71
57024;BME280;42916;54.346;18.562;2022-12-18T13:51:29;102290.86;;;-2.39;77.06
57024;BME280;42916;54.346;18.562;2022-12-18T13:53:58;102294.16;;;-2.45;77.51
57024;BME280;42916;54.346;18.562;2022-12-18T13:56:29;102292.45;;;-2.52;77.99
57024;BME280;42916;54.346;18.562;2022-12-18T13:59:06;102282.53;;;-2.59;78.01
57024;BME280;42916;54.346;18.562;2022-12-18T14:01:36;102287.55;;;-2.67;78.38
57024;BME280;42916;54.346;18.562;2022-12-18T14:04:17;102282.59;;;-2.74;78.45
57024;BME280;42916;54.346;18.562;2022-12-18T14:06:46;102284.63;;;-2.81;78.87
57024;BME280;42916;54.346;18.562;2022-12-18T14:09:27;102287.23;;;-2.90;78.82
57024;BME280;42916;54.346;18.562;2022-12-18T14:11:55;102282.70;;;-2.97;78.92
57024;BME280;42916;54.346;18.562;2022-12-18T14:14:48;102290.23;;;-3.05;79.15
57024;BME280;42916;54.346;18.562;2022-12-18T14:17:16;102291.04;;;-3.11;79.19
57024;BME280;42916;54.346;18.562;2022-12-18T14:19:46;102291.47;;;-3.17;79.15